Aeroporto :
LOGIN :

Iscrizione | Disclaimer

   EN    FR    IT 

 










Sommario :    VFR   VFR Marginale   IFR   IFR Intensivo   IFR Molto Intensivo
Visibilità : 
Base nubi : 
>= 8 km
>= 3000ft
5 / 8 km
1000 / 3000 ft
1500m / 5 km
500 / 1000 ft
800 / 1500m
200 / 500 ft
< 800m
< 200 ft
Simboli :   Temporali  Nebbia  Neve Forte  Precipitazioni Forti  Vento > 20 kt
SIGMETs :   Varie  Temporali  Ghiacco  Turbolenza  Onda orograficha  Ceneri Vulcaniche






- Altitudine del aeroporto : 1742 ft
- Codice IATA : SOF


LBSF - Sofia Int.

ULTIMO METAR :
  • 212030Z 28011KT 8000 NSC M04/M06 Q1037 NOSIG

METARs OBSOLETI :
  • 212000Z 28007KT 260V320 8000 NSC M04/M06 Q1037 NOSIG
  • 211930Z 28007KT 8000 NSC M04/M06 Q1037 NOSIG
  • 211900Z 28008KT 8000 NSC M03/M06 Q1038 NOSIG
  • 211830Z 28009KT 8000 NSC M03/M06 Q1038 NOSIG
  • 211800Z 28010KT 8000 NSC M03/M06 Q1038 NOSIG

TAF TAF LBSF
Valido dal 21 a 18 ore il 22 a 18 ore UTC


211700Z 2118/2218 27010KT 7000 NSC
BECMG 2119/2121 VRB04KT 4000 BR
BECMG 2123/2201 1500 BR SCT005
TEMPO 2202/2207 0600 FZFG BKN002
BECMG 2208/2210 29012KT CAVOK



MetMap, La meteo Aeronautica in un colpo d'occhio ! - Copyright ORBIFLY Dicembre 2007 - Disclaimer

ORBIFLY MET'MAP TEAM :

Programmazione e sviluppo : Alexandra Zaïnal
Concezione : Baudouin d'Aumeries
Aiuto per la programmazione : Marc-Olivier Méhu
Supporto tecnico e logistico : Manuel Goepfert
Aiuto per la traduzione : Arnaldo La Scala

Contatto : metmap@orbifly.com




FONTI E CREDITI :

   NOAA